createdAt,value
2023-02-18T00:01:42.640Z,9.07
2023-02-18T00:04:10.928Z,10.13
2023-02-18T00:06:40.515Z,8.87
2023-02-18T00:09:09.013Z,10.18
2023-02-18T00:11:39.393Z,9.27
2023-02-18T00:14:12.990Z,9.27
2023-02-18T00:16:42.098Z,7.57
2023-02-18T00:19:16.048Z,8.23
2023-02-18T00:21:46.548Z,10.15
2023-02-18T00:24:17.068Z,10.65
2023-02-18T00:26:45.961Z,9.75
2023-02-18T00:29:14.328Z,10.00
2023-02-18T00:31:42.590Z,8.82
2023-02-18T00:34:13.858Z,10.32
2023-02-18T00:36:42.761Z,10.17
2023-02-18T00:39:13.497Z,10.48
2023-02-18T00:41:42.305Z,10.80
2023-02-18T00:44:11.235Z,9.63
2023-02-18T00:46:39.933Z,9.43
2023-02-18T00:49:09.433Z,11.23
2023-02-18T00:51:37.834Z,9.47
2023-02-18T00:54:06.268Z,11.02
2023-02-18T00:56:36.177Z,11.40
2023-02-18T00:59:04.656Z,12.35
2023-02-18T01:01:32.968Z,9.93
2023-02-18T01:04:01.057Z,10.18
2023-02-18T01:06:29.127Z,11.77
2023-02-18T01:08:57.454Z,10.63
2023-02-18T01:11:25.591Z,10.43
2023-02-18T01:13:55.316Z,13.27
2023-02-18T01:16:23.759Z,11.82
2023-02-18T01:18:51.899Z,9.87
2023-02-18T01:21:20.010Z,9.98
2023-02-18T01:23:48.449Z,10.65
2023-02-18T01:26:16.475Z,10.68
2023-02-18T01:28:44.541Z,10.00
2023-02-18T01:31:15.960Z,10.97
2023-02-18T01:33:44.802Z,9.57
2023-02-18T01:36:13.314Z,8.38
2023-02-18T01:38:41.603Z,14.73
2023-02-18T01:41:10.451Z,10.57
2023-02-18T01:43:39.835Z,8.33
2023-02-18T01:46:21.575Z,9.75
2023-02-18T01:48:55.985Z,12.55
2023-02-18T01:51:29.666Z,10.65
2023-02-18T01:54:03.979Z,11.82
2023-02-18T01:56:38.906Z,8.73
2023-02-18T01:59:12.103Z,13.17
2023-02-18T02:01:46.138Z,9.85
2023-02-18T02:04:14.933Z,9.65
2023-02-18T02:06:43.481Z,12.00
2023-02-18T02:09:16.134Z,8.85
2023-02-18T02:12:29.408Z,10.32
2023-02-18T02:15:31.086Z,8.13
2023-02-18T02:18:19.402Z,9.63
2023-02-18T02:21:43.350Z,10.63
2023-02-18T02:24:53.473Z,11.82
2023-02-18T02:27:27.595Z,10.93
2023-02-18T02:30:49.262Z,8.75
2023-02-18T02:33:56.914Z,10.75
2023-02-18T02:36:36.952Z,10.02
2023-02-18T02:39:20.705Z,9.38
2023-02-18T02:42:01.661Z,9.50
2023-02-18T02:44:40.089Z,9.45
2023-02-18T02:47:20.951Z,9.73
2023-02-18T02:50:02.786Z,11.48
2023-02-18T02:52:37.301Z,6.97
2023-02-18T02:55:09.518Z,9.77
2023-02-18T02:57:51.250Z,9.82
2023-02-18T03:00:24.440Z,9.88
2023-02-18T03:03:29.137Z,8.98
2023-02-18T03:06:28.120Z,10.27
2023-02-18T03:09:11.222Z,12.70
2023-02-18T03:11:47.412Z,9.55
2023-02-18T03:14:28.747Z,9.38
2023-02-18T03:17:04.860Z,12.27
2023-02-18T03:19:40.746Z,10.07
2023-02-18T03:22:14.526Z,11.77
2023-02-18T03:24:47.575Z,11.17
2023-02-18T03:27:22.631Z,15.85
2023-02-18T03:29:57.854Z,12.00
2023-02-18T03:32:29.508Z,12.60
2023-02-18T03:35:03.878Z,11.30
2023-02-18T03:37:38.564Z,11.05
2023-02-18T03:40:12.024Z,11.80
2023-02-18T03:42:40.203Z,11.23
2023-02-18T03:45:08.897Z,10.93
2023-02-18T03:47:37.480Z,12.05
2023-02-18T03:50:06.865Z,12.52
2023-02-18T03:52:36.570Z,12.50
2023-02-18T03:55:05.504Z,13.80
2023-02-18T03:57:34.973Z,13.82
2023-02-18T04:00:04.242Z,12.20
2023-02-18T04:02:32.331Z,14.70
2023-02-18T04:05:00.425Z,11.00
2023-02-18T04:07:28.625Z,15.48
2023-02-18T04:09:56.746Z,14.45
2023-02-18T04:12:24.814Z,13.57
2023-02-18T04:14:54.223Z,13.30
2023-02-18T04:17:22.325Z,16.03
2023-02-18T04:19:50.464Z,15.60
2023-02-18T04:22:18.543Z,17.25
2023-02-18T04:24:46.572Z,16.67
2023-02-18T04:27:14.616Z,20.35
2023-02-18T04:29:42.890Z,20.52
2023-02-18T04:32:12.258Z,16.67
2023-02-18T04:34:40.312Z,19.80
2023-02-18T04:37:08.345Z,17.77
2023-02-18T04:39:36.513Z,18.50
2023-02-18T04:42:08.825Z,15.75
2023-02-18T04:44:37.292Z,16.75
2023-02-18T04:47:06.707Z,20.52
2023-02-18T04:49:36.431Z,18.55
2023-02-18T04:52:04.935Z,19.17
2023-02-18T04:54:33.099Z,20.63
2023-02-18T04:57:01.483Z,21.63
2023-02-18T04:59:29.551Z,22.10
2023-02-18T05:01:57.826Z,19.97
2023-02-18T05:04:26.041Z,17.90
2023-02-18T05:06:55.523Z,24.47
2023-02-18T05:09:24.316Z,25.13
2023-02-18T05:11:52.714Z,23.67
2023-02-18T05:14:20.817Z,24.45
2023-02-18T05:16:48.919Z,27.38
2023-02-18T05:19:18.112Z,24.30
2023-02-18T05:21:46.397Z,24.42
2023-02-18T05:24:15.789Z,21.48
2023-02-18T05:26:43.868Z,24.20
2023-02-18T05:29:11.924Z,25.45
2023-02-18T05:31:40.353Z,23.60
2023-02-18T05:34:08.542Z,23.92
2023-02-18T05:36:36.739Z,24.30
2023-02-18T05:39:04.940Z,23.73
2023-02-18T05:41:34.367Z,26.50
2023-02-18T05:44:20.104Z,23.20
2023-02-18T05:46:48.241Z,26.48
2023-02-18T05:49:16.297Z,29.65
2023-02-18T05:51:44.407Z,27.88
2023-02-18T05:54:12.448Z,27.33
2023-02-18T05:56:42.270Z,29.33
2023-02-18T05:59:10.504Z,29.08
2023-02-18T06:01:38.619Z,28.50
2023-02-18T06:04:06.872Z,31.55
2023-02-18T06:06:35.473Z,25.77
2023-02-18T06:09:04.432Z,32.05
2023-02-18T06:11:33.221Z,26.40
2023-02-18T06:14:03.696Z,30.08
2023-02-18T06:16:32.627Z,28.67
2023-02-18T06:19:00.806Z,29.97
2023-02-18T06:21:29.057Z,31.67
2023-02-18T06:23:57.097Z,30.55
2023-02-18T06:26:25.185Z,31.67
2023-02-18T06:28:53.323Z,30.23
2023-02-18T06:31:22.983Z,29.85
2023-02-18T06:33:51.095Z,30.42
2023-02-18T06:36:19.338Z,27.15
2023-02-18T06:38:47.641Z,29.65
2023-02-18T06:41:16.640Z,28.85
2023-02-18T06:43:44.686Z,31.55
2023-02-18T06:46:12.724Z,26.80
2023-02-18T06:48:42.162Z,28.93
2023-02-18T06:51:10.186Z,29.98
2023-02-18T06:53:38.233Z,32.40
2023-02-18T06:56:07.064Z,30.48
2023-02-18T06:58:35.233Z,28.00
2023-02-18T07:01:03.317Z,27.65
2023-02-18T07:03:31.570Z,27.30
2023-02-18T07:06:01.008Z,36.88
2023-02-18T07:08:30.653Z,27.67
2023-02-18T07:10:58.682Z,37.15
2023-02-18T07:13:26.743Z,31.80
2023-02-18T07:15:54.780Z,30.63
2023-02-18T07:18:22.952Z,32.90
2023-02-18T07:20:50.989Z,35.00
2023-02-18T07:23:20.394Z,34.87
2023-02-18T07:25:48.438Z,38.55
2023-02-18T07:28:16.501Z,35.08
2023-02-18T07:30:45.590Z,29.48
2023-02-18T07:33:14.105Z,39.53
2023-02-18T07:35:42.150Z,46.60
2023-02-18T07:38:10.463Z,33.05
2023-02-18T07:40:40.512Z,40.17
2023-02-18T07:43:08.549Z,42.42
2023-02-18T07:45:39.078Z,40.53
2023-02-18T07:48:07.291Z,43.25
2023-02-18T07:50:37.084Z,50.90
2023-02-18T07:53:06.080Z,61.57
2023-02-18T07:55:48.081Z,39.42
2023-02-18T07:58:17.688Z,53.38
2023-02-18T08:00:47.545Z,54.85
2023-02-18T08:03:16.375Z,55.53
2023-02-18T08:05:45.522Z,39.88
2023-02-18T08:08:15.484Z,49.80
2023-02-18T08:10:43.970Z,50.00
2023-02-18T08:13:12.207Z,51.07
2023-02-18T08:15:41.852Z,49.10
2023-02-18T08:18:17.571Z,45.13
2023-02-18T08:20:47.158Z,42.35
2023-02-18T08:23:17.282Z,46.15
2023-02-18T08:25:49.989Z,41.40
2023-02-18T08:28:18.676Z,43.38
2023-02-18T08:30:49.313Z,37.78
2023-02-18T08:33:18.549Z,32.83
2023-02-18T08:35:49.139Z,30.33
2023-02-18T08:38:17.598Z,28.42
2023-02-18T08:40:46.007Z,26.88
2023-02-18T08:43:15.190Z,23.43
2023-02-18T08:45:44.844Z,23.33
2023-02-18T08:48:20.350Z,20.35
2023-02-18T08:50:48.831Z,18.05
2023-02-18T08:53:17.435Z,15.65
2023-02-18T08:55:45.833Z,17.45
2023-02-18T08:58:14.123Z,17.35
2023-02-18T09:00:44.890Z,14.55
2023-02-18T09:03:16.128Z,11.23
2023-02-18T09:05:45.113Z,7.40
2023-02-18T09:08:14.519Z,5.70
2023-02-18T09:10:43.938Z,4.37
2023-02-18T09:13:12.818Z,4.40
2023-02-18T09:15:40.917Z,4.93
2023-02-18T09:18:09.065Z,5.32
2023-02-18T09:20:41.483Z,4.32
2023-02-18T09:23:09.544Z,4.97
2023-02-18T09:25:41.239Z,3.97
2023-02-18T09:28:09.341Z,3.97
2023-02-18T09:30:37.500Z,3.90
2023-02-18T09:33:05.609Z,3.95
2023-02-18T09:35:34.116Z,3.92
2023-02-18T09:38:03.505Z,3.70
2023-02-18T09:40:38.866Z,3.17
2023-02-18T09:43:07.883Z,3.13
2023-02-18T09:45:36.485Z,2.90
2023-02-18T09:48:06.404Z,2.70
2023-02-18T09:50:35.608Z,3.38
2023-02-18T09:53:06.047Z,2.60
2023-02-18T09:55:39.457Z,2.45
2023-02-18T09:58:15.261Z,2.50
2023-02-18T10:00:48.515Z,2.20
2023-02-18T10:03:19.331Z,2.50
2023-02-18T10:05:59.106Z,1.98
2023-02-18T10:08:34.867Z,2.20
2023-02-18T10:11:03.939Z,2.15
2023-02-18T10:13:35.228Z,2.30
2023-02-18T10:16:04.828Z,2.25
2023-02-18T10:18:40.918Z,2.30
2023-02-18T10:21:13.322Z,2.50
2023-02-18T10:23:55.705Z,2.70
2023-02-18T10:26:24.185Z,2.28
2023-02-18T10:28:52.934Z,2.60
2023-02-18T10:31:29.848Z,2.40
2023-02-18T10:34:12.588Z,2.22
2023-02-18T10:36:48.062Z,2.42
2023-02-18T10:39:51.678Z,2.70
2023-02-18T10:42:36.898Z,3.63
2023-02-18T10:45:22.102Z,3.35
2023-02-18T10:48:06.135Z,3.17
2023-02-18T10:50:39.542Z,3.10
2023-02-18T10:53:14.972Z,3.25
2023-02-18T10:55:49.024Z,3.00
2023-02-18T10:58:32.822Z,2.90
2023-02-18T11:01:05.078Z,2.80
2023-02-18T11:03:47.750Z,2.58
2023-02-18T11:06:29.625Z,2.93
2023-02-18T11:08:59.192Z,2.33
2023-02-18T11:11:35.307Z,2.10
2023-02-18T11:14:07.838Z,2.35
2023-02-18T11:16:42.483Z,2.50
2023-02-18T11:19:34.635Z,2.35
2023-02-18T11:22:17.214Z,2.85
2023-02-18T11:24:48.519Z,2.97
2023-02-18T11:27:27.436Z,4.07
2023-02-18T11:30:02.882Z,10.27
2023-02-18T11:32:35.304Z,3.33
2023-02-18T11:35:06.216Z,6.00
2023-02-18T11:37:38.230Z,8.73
2023-02-18T11:40:08.592Z,13.15
2023-02-18T11:42:38.072Z,12.98
2023-02-18T11:45:06.564Z,7.72
2023-02-18T11:47:37.021Z,13.10
2023-02-18T11:50:22.086Z,13.53
2023-02-18T11:52:53.807Z,17.13
2023-02-18T11:55:24.857Z,18.30
2023-02-18T11:57:58.956Z,7.15
2023-02-18T12:00:40.028Z,5.70
2023-02-18T12:03:19.182Z,8.07
2023-02-18T12:05:47.895Z,4.90
2023-02-18T12:08:25.005Z,4.53
2023-02-18T12:10:57.937Z,4.88
2023-02-18T12:13:34.856Z,6.17
2023-02-18T12:16:15.491Z,4.60
2023-02-18T12:19:13.805Z,3.75
2023-02-18T12:21:59.332Z,3.88
2023-02-18T12:24:50.103Z,3.45
2023-02-18T12:27:25.870Z,3.58
2023-02-18T12:30:26.791Z,3.70
2023-02-18T12:33:06.200Z,2.95
2023-02-18T12:35:53.306Z,2.85
2023-02-18T12:38:54.809Z,2.47
2023-02-18T12:41:47.910Z,2.90
2023-02-18T12:44:45.190Z,2.40
2023-02-18T12:47:39.295Z,4.40
2023-02-18T12:50:41.205Z,2.10
2023-02-18T12:53:40.256Z,2.40
2023-02-18T12:56:46.416Z,2.70
2023-02-18T12:59:44.212Z,2.80
2023-02-18T13:02:40.106Z,3.08
2023-02-18T13:05:23.709Z,2.70
2023-02-18T13:08:08.302Z,2.67
2023-02-18T13:10:54.215Z,3.03
2023-02-18T13:13:26.979Z,3.00
2023-02-18T13:16:00.711Z,3.08
2023-02-18T13:18:36.214Z,3.47
2023-02-18T13:21:08.564Z,3.08
2023-02-18T13:23:44.551Z,3.28
2023-02-18T13:26:17.350Z,3.83
2023-02-18T13:28:56.525Z,4.90
2023-02-18T13:31:40.509Z,3.83
2023-02-18T13:34:25.280Z,3.50
2023-02-18T13:37:09.351Z,4.20
2023-02-18T13:39:40.240Z,3.17
2023-02-18T13:42:26.544Z,3.72
2023-02-18T13:45:33.123Z,4.47
2023-02-18T13:48:02.564Z,4.82
2023-02-18T13:50:45.127Z,3.67
2023-02-18T13:53:24.300Z,3.33
2023-02-18T13:56:10.642Z,4.03
2023-02-18T13:58:44.087Z,3.57
2023-02-18T14:01:41.066Z,3.13
2023-02-18T14:04:54.769Z,4.00
2023-02-18T14:07:48.487Z,3.80
2023-02-18T14:10:43.909Z,4.20
2023-02-18T14:13:26.511Z,6.50
2023-02-18T14:16:00.186Z,10.55
2023-02-18T14:19:01.390Z,6.20
2023-02-18T14:21:43.592Z,4.80
2023-02-18T14:24:14.228Z,6.38
2023-02-18T14:26:48.325Z,4.87
2023-02-18T14:29:27.720Z,4.53
2023-02-18T14:32:04.209Z,4.63
2023-02-18T14:35:08.616Z,5.00
2023-02-18T14:38:05.653Z,5.50
2023-02-18T14:41:28.461Z,5.00
2023-02-18T14:44:29.356Z,4.43
2023-02-18T14:47:21.877Z,4.60
2023-02-18T14:49:53.724Z,6.40
2023-02-18T14:52:33.009Z,5.38
2023-02-18T14:55:05.845Z,4.85
2023-02-18T14:57:43.173Z,7.25
2023-02-18T15:00:18.729Z,7.47
2023-02-18T15:02:51.966Z,7.60
2023-02-18T15:05:23.905Z,6.38
2023-02-18T15:08:01.088Z,5.85
2023-02-18T15:10:40.112Z,7.38
2023-02-18T15:13:20.278Z,8.00
2023-02-18T15:15:53.432Z,8.68
2023-02-18T15:18:30.851Z,7.95
2023-02-18T15:21:02.056Z,6.47
2023-02-18T15:23:31.815Z,7.30
2023-02-18T15:26:00.200Z,33.08
2023-02-18T15:28:33.276Z,31.13
2023-02-18T15:31:04.250Z,13.20
2023-02-18T15:33:32.469Z,8.67
2023-02-18T15:36:04.796Z,11.77
2023-02-18T15:38:33.438Z,13.90
2023-02-18T15:41:03.934Z,21.10
2023-02-18T15:43:35.081Z,7.35
2023-02-18T15:46:13.844Z,12.77
2023-02-18T15:48:48.624Z,8.90
2023-02-18T15:51:24.120Z,15.02
2023-02-18T15:53:56.442Z,10.23
2023-02-18T15:56:32.145Z,12.98
2023-02-18T15:59:20.242Z,25.20
2023-02-18T16:01:52.364Z,12.32
2023-02-18T16:04:22.125Z,13.38
2023-02-18T16:06:54.144Z,10.85
2023-02-18T16:09:27.658Z,10.57
2023-02-18T16:12:00.278Z,9.43
2023-02-18T16:14:34.283Z,11.00
2023-02-18T16:17:14.517Z,9.07
2023-02-18T16:20:03.825Z,10.05
2023-02-18T16:22:43.650Z,12.45
2023-02-18T16:25:18.932Z,9.55
2023-02-18T16:27:55.216Z,13.07
2023-02-18T16:30:28.751Z,11.05
2023-02-18T16:32:58.440Z,12.75
2023-02-18T16:35:32.778Z,11.52
2023-02-18T16:38:06.769Z,12.70
2023-02-18T16:40:37.958Z,13.32
2023-02-18T16:43:15.412Z,14.95
2023-02-18T16:45:49.724Z,10.80
2023-02-18T16:48:25.162Z,13.37
2023-02-18T16:50:54.245Z,11.18
2023-02-18T16:53:22.553Z,13.75
2023-02-18T16:55:51.725Z,11.20
2023-02-18T16:58:19.897Z,11.77
2023-02-18T17:00:53.005Z,13.23
2023-02-18T17:03:21.866Z,13.40
2023-02-18T17:05:49.938Z,12.40
2023-02-18T17:08:23.286Z,11.88
2023-02-18T17:10:53.932Z,10.82
2023-02-18T17:13:24.846Z,11.02
2023-02-18T17:15:57.307Z,13.30
2023-02-18T17:18:26.045Z,12.73
2023-02-18T17:20:57.199Z,11.55
2023-02-18T17:23:25.823Z,21.00
2023-02-18T17:25:54.599Z,9.70
2023-02-18T17:28:23.132Z,11.55
2023-02-18T17:30:58.964Z,12.20
2023-02-18T17:33:27.143Z,10.53
2023-02-18T17:35:55.442Z,10.10
2023-02-18T17:38:23.561Z,9.40
2023-02-18T17:40:51.682Z,12.88
2023-02-18T17:43:20.220Z,9.63
2023-02-18T17:45:52.426Z,12.30
2023-02-18T17:48:22.354Z,13.27
2023-02-18T17:50:51.247Z,11.48
2023-02-18T17:53:20.069Z,11.83
2023-02-18T17:55:49.971Z,10.97
2023-02-18T17:58:18.779Z,13.70
2023-02-18T18:00:50.928Z,20.58
2023-02-18T18:03:20.784Z,11.27
2023-02-18T18:05:54.304Z,10.93
2023-02-18T18:08:22.399Z,9.10
2023-02-18T18:10:55.635Z,12.27
2023-02-18T18:13:26.671Z,11.45
2023-02-18T18:15:57.756Z,9.05
2023-02-18T18:18:28.534Z,14.27
2023-02-18T18:21:00.438Z,9.45
2023-02-18T18:23:29.234Z,11.98
2023-02-18T18:25:59.013Z,12.68
2023-02-18T18:28:28.495Z,9.50
2023-02-18T18:30:57.597Z,8.27
2023-02-18T18:33:30.190Z,11.82
2023-02-18T18:36:00.744Z,8.90
2023-02-18T18:38:30.655Z,9.15
2023-02-18T18:40:58.895Z,11.20
2023-02-18T18:43:32.744Z,10.35
2023-02-18T18:46:01.743Z,6.85
2023-02-18T18:48:31.243Z,7.50
2023-02-18T18:51:01.446Z,6.77
2023-02-18T18:53:32.850Z,10.80
2023-02-18T18:56:04.470Z,8.87
2023-02-18T18:58:33.020Z,7.65
2023-02-18T19:01:04.799Z,8.50
2023-02-18T19:03:35.509Z,8.70
2023-02-18T19:06:03.584Z,7.85
2023-02-18T19:08:32.325Z,9.52
2023-02-18T19:11:00.396Z,7.90
2023-02-18T19:13:30.913Z,8.50
2023-02-18T19:16:04.922Z,8.38
2023-02-18T19:18:35.254Z,8.10
2023-02-18T19:21:04.684Z,9.07
2023-02-18T19:23:33.764Z,9.07
2023-02-18T19:26:02.154Z,7.85
2023-02-18T19:28:30.713Z,6.95
2023-02-18T19:30:58.965Z,8.80
2023-02-18T19:33:27.093Z,9.50
2023-02-18T19:35:56.498Z,10.43
2023-02-18T19:38:24.597Z,8.90
2023-02-18T19:40:53.858Z,9.25
2023-02-18T19:43:22.016Z,7.55
2023-02-18T19:45:50.029Z,8.90
2023-02-18T19:48:18.230Z,10.98
2023-02-18T19:50:46.257Z,8.40
2023-02-18T19:53:15.704Z,8.27
2023-02-18T19:55:44.176Z,9.27
2023-02-18T19:58:12.248Z,10.82
2023-02-18T20:00:43.566Z,9.03
2023-02-18T20:03:11.626Z,9.10
2023-02-18T20:05:39.680Z,10.48
2023-02-18T20:08:07.838Z,10.03
2023-02-18T20:10:37.314Z,10.10
2023-02-18T20:13:11.097Z,9.37
2023-02-18T20:15:41.010Z,10.37
2023-02-18T20:18:09.395Z,11.23
2023-02-18T20:20:37.425Z,9.32
2023-02-18T20:23:05.530Z,10.57
2023-02-18T20:25:33.564Z,9.80
2023-02-18T20:28:03.006Z,10.02
2023-02-18T20:30:31.119Z,11.90
2023-02-18T20:32:59.345Z,10.57
2023-02-18T20:35:28.458Z,9.30
2023-02-18T20:37:56.565Z,12.52
2023-02-18T20:40:24.812Z,17.92
2023-02-18T20:42:52.830Z,11.43
2023-02-18T20:45:22.214Z,10.60
2023-02-18T20:47:50.253Z,9.85
2023-02-18T20:50:18.568Z,9.77
2023-02-18T20:52:46.611Z,11.85
2023-02-18T20:55:14.667Z,11.93
2023-02-18T20:57:42.728Z,12.93
2023-02-18T21:00:13.094Z,12.73
2023-02-18T21:02:42.555Z,12.50
2023-02-18T21:05:10.674Z,11.07
2023-02-18T21:07:38.700Z,10.83
2023-02-18T21:10:07.595Z,10.43
2023-02-18T21:12:35.627Z,10.23
2023-02-18T21:15:03.739Z,9.90
2023-02-18T21:17:31.831Z,12.77
2023-02-18T21:20:01.535Z,13.48
2023-02-18T21:22:29.646Z,14.27
2023-02-18T21:24:59.126Z,11.73
2023-02-18T21:27:27.422Z,12.93
2023-02-18T21:29:55.462Z,10.48
2023-02-18T21:32:23.812Z,11.80
2023-02-18T21:34:52.109Z,12.65
2023-02-18T21:37:21.558Z,13.38
2023-02-18T21:39:49.578Z,11.93
2023-02-18T21:42:17.669Z,11.70
2023-02-18T21:44:45.758Z,9.82
2023-02-18T21:47:13.891Z,12.55
2023-02-18T21:49:41.966Z,12.17
2023-02-18T21:52:10.160Z,11.77
2023-02-18T21:54:44.401Z,17.52
2023-02-18T21:57:14.720Z,11.50
2023-02-18T21:59:43.268Z,10.88
2023-02-18T22:02:17.726Z,13.82
2023-02-18T22:04:47.141Z,15.07
2023-02-18T22:07:17.493Z,15.85
2023-02-18T22:09:48.578Z,17.50
2023-02-18T22:12:17.100Z,14.15
2023-02-18T22:14:45.659Z,14.80
2023-02-18T22:17:15.890Z,14.45
2023-02-18T22:19:44.299Z,22.35
2023-02-18T22:22:14.031Z,18.88
2023-02-18T22:24:42.144Z,18.05
2023-02-18T22:27:11.774Z,19.95
2023-02-18T22:29:40.079Z,14.77
2023-02-18T22:32:08.195Z,15.80
2023-02-18T22:34:36.352Z,15.23
2023-02-18T22:37:04.445Z,15.00
2023-02-18T22:39:32.686Z,15.07
2023-02-18T22:42:00.722Z,16.20
2023-02-18T22:44:30.198Z,13.32
2023-02-18T22:46:59.093Z,12.75
2023-02-18T22:49:27.303Z,12.68
2023-02-18T22:51:55.903Z,12.70
2023-02-18T22:54:24.194Z,17.90
2023-02-18T22:56:53.944Z,15.85
2023-02-18T22:59:22.056Z,14.43
2023-02-18T23:01:52.876Z,17.45
2023-02-18T23:04:22.665Z,15.48
2023-02-18T23:06:52.129Z,18.02
2023-02-18T23:09:23.902Z,15.55
2023-02-18T23:11:53.846Z,12.65
2023-02-18T23:14:22.745Z,16.23
2023-02-18T23:17:14.827Z,13.25
2023-02-18T23:19:46.787Z,15.33
2023-02-18T23:22:17.962Z,15.10
2023-02-18T23:24:47.324Z,13.75
2023-02-18T23:27:17.027Z,14.90
2023-02-18T23:29:45.179Z,12.10
2023-02-18T23:32:15.070Z,18.27
2023-02-18T23:34:43.123Z,16.52
2023-02-18T23:37:11.319Z,16.38
2023-02-18T23:39:40.163Z,16.87
2023-02-18T23:42:08.898Z,16.15
2023-02-18T23:44:37.306Z,18.33
2023-02-18T23:47:05.408Z,16.80
2023-02-18T23:49:34.783Z,14.80
2023-02-18T23:52:02.831Z,17.20
2023-02-18T23:54:30.897Z,18.33
2023-02-18T23:56:58.922Z,15.63
2023-02-18T23:59:27.106Z,17.08
